createdAt,value
2018-08-30T00:01:23.886Z,1.70
2018-08-30T00:03:52.282Z,2.30
2018-08-30T00:06:20.605Z,2.10
2018-08-30T00:08:49.014Z,1.60
2018-08-30T00:11:17.303Z,2.60
2018-08-30T00:13:45.658Z,2.30
2018-08-30T00:16:13.988Z,2.23
2018-08-30T00:18:42.345Z,4.20
2018-08-30T00:21:10.702Z,3.80
2018-08-30T00:23:39.041Z,4.60
2018-08-30T00:26:07.358Z,4.70
2018-08-30T00:28:35.705Z,6.57
2018-08-30T00:31:04.030Z,5.33
2018-08-30T00:33:32.372Z,4.37
2018-08-30T00:36:00.706Z,4.77
2018-08-30T00:38:29.060Z,5.03
2018-08-30T00:40:57.411Z,4.20
2018-08-30T00:43:25.792Z,4.50
2018-08-30T00:45:54.122Z,4.20
2018-08-30T00:48:22.453Z,3.50
2018-08-30T00:50:50.781Z,3.03
2018-08-30T00:53:19.128Z,5.17
2018-08-30T00:55:47.452Z,2.70
2018-08-30T00:58:15.799Z,2.90
2018-08-30T01:00:44.158Z,3.57
2018-08-30T01:03:12.510Z,2.93
2018-08-30T01:05:40.860Z,2.50
2018-08-30T01:08:09.181Z,2.03
2018-08-30T01:10:37.526Z,2.30
2018-08-30T01:13:05.858Z,1.97
2018-08-30T01:15:34.226Z,2.27
2018-08-30T01:18:02.565Z,1.53
2018-08-30T01:20:30.909Z,2.20
2018-08-30T01:22:59.234Z,2.50
2018-08-30T01:25:27.664Z,3.27
2018-08-30T01:27:55.981Z,2.90
2018-08-30T01:30:24.323Z,2.10
2018-08-30T01:32:52.650Z,2.63
2018-08-30T01:35:20.992Z,2.73
2018-08-30T01:37:49.304Z,2.37
2018-08-30T01:40:17.638Z,2.30
2018-08-30T01:42:45.956Z,2.50
2018-08-30T01:45:14.325Z,2.70
2018-08-30T01:47:42.674Z,3.10
2018-08-30T01:50:11.029Z,4.33
2018-08-30T01:52:39.352Z,3.43
2018-08-30T01:55:07.716Z,3.43
2018-08-30T01:57:36.046Z,2.87
2018-08-30T02:00:04.394Z,2.13
2018-08-30T02:02:32.714Z,3.27
2018-08-30T02:05:01.069Z,2.90
2018-08-30T02:07:29.411Z,2.87
2018-08-30T02:09:57.760Z,5.33
2018-08-30T02:12:26.080Z,4.10
2018-08-30T02:14:54.430Z,3.50
2018-08-30T02:17:22.758Z,2.73
2018-08-30T02:19:51.100Z,2.80
2018-08-30T02:22:19.424Z,2.47
2018-08-30T02:24:47.769Z,2.23
2018-08-30T02:27:16.094Z,3.13
2018-08-30T02:29:44.461Z,3.20
2018-08-30T02:32:12.777Z,2.80
2018-08-30T02:34:41.168Z,4.27
2018-08-30T02:37:09.866Z,3.33
2018-08-30T02:39:38.196Z,2.83
2018-08-30T02:42:06.508Z,2.23
2018-08-30T02:44:34.849Z,2.67
2018-08-30T02:47:03.197Z,4.40
2018-08-30T02:49:31.534Z,2.90
2018-08-30T02:51:59.852Z,4.17
2018-08-30T02:54:28.192Z,5.40
2018-08-30T02:56:56.504Z,4.67
2018-08-30T02:59:24.845Z,6.00
2018-08-30T03:01:53.162Z,5.47
2018-08-30T03:04:21.512Z,5.67
2018-08-30T03:06:49.826Z,4.30
2018-08-30T03:09:18.163Z,8.63
2018-08-30T03:11:46.477Z,6.63
2018-08-30T03:14:14.825Z,5.47
2018-08-30T03:16:43.469Z,5.80
2018-08-30T03:19:11.861Z,5.23
2018-08-30T03:21:40.211Z,5.30
2018-08-30T03:24:08.626Z,4.60
2018-08-30T03:26:36.956Z,4.10
2018-08-30T03:29:05.402Z,3.63
2018-08-30T03:31:33.746Z,4.67
2018-08-30T03:34:02.106Z,5.80
2018-08-30T03:36:30.440Z,5.40
2018-08-30T03:38:58.757Z,7.77
2018-08-30T03:41:27.118Z,7.47
2018-08-30T03:43:55.468Z,7.83
2018-08-30T03:46:23.804Z,6.67
2018-08-30T03:48:52.116Z,14.67
2018-08-30T03:51:20.450Z,11.97
2018-08-30T03:53:48.771Z,14.67
2018-08-30T03:56:17.104Z,13.67
2018-08-30T03:58:45.434Z,14.63
2018-08-30T04:01:13.769Z,11.23
2018-08-30T04:03:42.229Z,12.77
2018-08-30T04:06:10.586Z,12.00
2018-08-30T04:08:38.897Z,14.23
2018-08-30T04:11:07.238Z,18.00
2018-08-30T04:13:35.706Z,17.63
2018-08-30T04:16:03.944Z,17.30
2018-08-30T04:18:32.273Z,16.03
2018-08-30T04:21:00.597Z,13.30
2018-08-30T04:23:28.917Z,20.97
2018-08-30T04:25:57.261Z,14.87
2018-08-30T04:28:25.591Z,13.43
2018-08-30T04:30:53.924Z,16.13
2018-08-30T04:33:22.245Z,13.70
2018-08-30T04:35:50.609Z,12.17
2018-08-30T04:38:18.921Z,9.60
2018-08-30T04:40:47.260Z,12.10
2018-08-30T04:43:15.574Z,12.57
2018-08-30T04:45:43.937Z,14.93
2018-08-30T04:48:12.276Z,15.13
2018-08-30T04:50:40.729Z,16.30
2018-08-30T04:53:09.129Z,15.37
2018-08-30T04:55:37.484Z,15.87
2018-08-30T04:58:05.897Z,17.00
2018-08-30T05:00:34.233Z,15.37
2018-08-30T05:03:02.542Z,19.20
2018-08-30T05:05:30.893Z,16.23
2018-08-30T05:07:59.217Z,16.17
2018-08-30T05:10:27.577Z,15.13
2018-08-30T05:12:55.898Z,13.97
2018-08-30T05:15:24.244Z,17.07
2018-08-30T05:17:52.556Z,16.50
2018-08-30T05:20:20.890Z,19.07
2018-08-30T05:22:49.202Z,15.07
2018-08-30T05:25:17.541Z,18.93
2018-08-30T05:27:46.023Z,18.27
2018-08-30T05:30:14.404Z,15.13
2018-08-30T05:32:42.737Z,15.87
2018-08-30T05:35:11.053Z,14.70
2018-08-30T05:37:39.401Z,16.43
2018-08-30T05:40:07.765Z,20.40
2018-08-30T05:42:36.098Z,21.10
2018-08-30T05:45:04.425Z,21.13
2018-08-30T05:47:32.846Z,20.83
2018-08-30T05:50:01.173Z,22.67
2018-08-30T05:52:29.627Z,19.47
2018-08-30T05:54:57.998Z,20.57
2018-08-30T05:57:26.333Z,20.53
2018-08-30T05:59:54.686Z,20.40
2018-08-30T06:02:23.036Z,19.90
2018-08-30T06:04:51.521Z,15.67
2018-08-30T06:07:19.919Z,17.20
2018-08-30T06:09:48.221Z,19.83
2018-08-30T06:12:16.563Z,20.10
2018-08-30T06:14:44.894Z,21.10
2018-08-30T06:17:13.225Z,21.43
2018-08-30T06:19:42.261Z,18.53
2018-08-30T06:22:10.597Z,20.17
2018-08-30T06:24:39.060Z,18.00
2018-08-30T06:27:07.393Z,16.57
2018-08-30T06:29:35.713Z,17.57
2018-08-30T06:32:04.054Z,16.17
2018-08-30T06:34:32.436Z,18.13
2018-08-30T06:37:00.745Z,20.40
2018-08-30T06:39:29.070Z,17.27
2018-08-30T06:41:57.416Z,18.53
2018-08-30T06:44:25.745Z,15.27
2018-08-30T06:46:54.077Z,18.70
2018-08-30T06:49:22.439Z,14.83
2018-08-30T06:51:50.853Z,14.17
2018-08-30T06:54:19.221Z,13.90
2018-08-30T06:56:47.585Z,12.67
2018-08-30T06:59:15.910Z,9.30
2018-08-30T07:01:44.258Z,13.07
2018-08-30T07:04:12.658Z,13.30
2018-08-30T07:06:40.992Z,12.70
2018-08-30T07:09:11.309Z,11.73
2018-08-30T07:11:39.661Z,11.20
2018-08-30T07:14:08.419Z,9.03
2018-08-30T07:16:37.048Z,11.83
2018-08-30T07:19:05.448Z,13.60
2018-08-30T07:21:33.797Z,9.57
2018-08-30T07:24:02.128Z,12.17
2018-08-30T07:26:30.481Z,12.47
2018-08-30T07:28:58.837Z,11.90
2018-08-30T07:31:27.165Z,8.60
2018-08-30T07:33:55.472Z,8.70
2018-08-30T07:36:23.804Z,8.83
2018-08-30T07:38:52.120Z,7.57
2018-08-30T07:41:20.456Z,11.70
2018-08-30T07:43:48.788Z,14.13
2018-08-30T07:46:17.151Z,13.93
2018-08-30T07:48:45.490Z,12.17
2018-08-30T07:51:14.073Z,12.90
2018-08-30T07:53:42.425Z,14.30
2018-08-30T07:56:10.802Z,11.27
2018-08-30T07:58:39.140Z,11.27
2018-08-30T08:01:07.465Z,12.33
2018-08-30T08:03:35.810Z,15.30
2018-08-30T08:06:04.212Z,13.00
2018-08-30T08:08:32.541Z,14.13
2018-08-30T08:11:00.850Z,12.87
2018-08-30T08:13:29.176Z,14.43
2018-08-30T08:15:57.498Z,13.30
2018-08-30T08:18:25.833Z,13.20
2018-08-30T08:20:54.139Z,15.83
2018-08-30T08:23:22.478Z,14.23
2018-08-30T08:25:50.793Z,11.97
2018-08-30T08:28:19.149Z,14.97
2018-08-30T08:30:47.465Z,13.00
2018-08-30T08:33:15.801Z,11.17
2018-08-30T08:35:44.130Z,14.63
2018-08-30T08:38:12.493Z,13.33
2018-08-30T08:40:40.807Z,10.53
2018-08-30T08:43:09.149Z,12.03
2018-08-30T08:45:37.496Z,13.00
2018-08-30T08:48:05.926Z,11.30
2018-08-30T08:50:34.241Z,13.53
2018-08-30T08:53:02.592Z,14.57
2018-08-30T08:55:30.901Z,10.97
2018-08-30T08:57:59.237Z,12.83
2018-08-30T09:00:27.561Z,11.53
2018-08-30T09:02:55.900Z,9.53
2018-08-30T09:05:24.255Z,12.73
2018-08-30T09:07:52.613Z,12.20
2018-08-30T09:10:20.961Z,12.50
2018-08-30T09:12:49.316Z,10.00
2018-08-30T09:15:17.651Z,10.47
2018-08-30T09:17:45.994Z,8.90
2018-08-30T09:20:14.317Z,12.73
2018-08-30T09:22:42.664Z,12.13
2018-08-30T09:25:10.996Z,10.53
2018-08-30T09:27:39.324Z,9.63
2018-08-30T09:30:07.654Z,12.67
2018-08-30T09:32:35.997Z,10.60
2018-08-30T09:35:04.329Z,7.40
2018-08-30T09:37:32.668Z,9.10
2018-08-30T09:40:00.992Z,9.17
2018-08-30T09:42:29.333Z,10.00
2018-08-30T09:44:57.644Z,8.00
2018-08-30T09:47:25.971Z,9.90
2018-08-30T09:49:54.315Z,7.77
2018-08-30T09:52:29.425Z,8.63
2018-08-30T09:54:57.755Z,7.90
2018-08-30T09:57:26.129Z,6.87
2018-08-30T09:59:54.456Z,7.23
2018-08-30T10:02:28.257Z,6.50
2018-08-30T10:04:56.617Z,4.73
2018-08-30T10:07:24.985Z,5.63
2018-08-30T10:09:53.301Z,5.37
2018-08-30T10:12:21.608Z,5.93
2018-08-30T10:14:49.937Z,5.40
2018-08-30T10:17:18.246Z,5.50
2018-08-30T10:19:46.576Z,5.67
2018-08-30T10:22:14.906Z,5.90
2018-08-30T10:24:43.250Z,7.37
2018-08-30T10:27:11.576Z,6.30
2018-08-30T10:29:39.897Z,7.53
2018-08-30T10:32:08.211Z,9.17
2018-08-30T10:34:36.559Z,8.30
2018-08-30T10:37:05.039Z,12.67
2018-08-30T10:39:33.362Z,13.03
2018-08-30T10:42:01.709Z,10.17
2018-08-30T10:44:30.071Z,8.60
2018-08-30T10:46:58.406Z,11.27
2018-08-30T10:49:33.572Z,9.73
2018-08-30T10:52:01.780Z,8.87
2018-08-30T10:54:30.129Z,7.33
2018-08-30T10:56:58.460Z,8.20
2018-08-30T10:59:26.785Z,8.13
2018-08-30T11:01:55.122Z,10.03
2018-08-30T11:04:23.651Z,13.17
2018-08-30T11:06:51.936Z,10.90
2018-08-30T11:09:20.324Z,11.60
2018-08-30T11:11:48.692Z,14.17
2018-08-30T11:14:17.017Z,13.87
2018-08-30T11:16:45.369Z,13.50
2018-08-30T11:19:13.746Z,11.40
2018-08-30T11:21:42.108Z,12.40
2018-08-30T11:24:10.640Z,14.03
2018-08-30T11:26:38.952Z,14.77
2018-08-30T11:29:07.314Z,14.93
2018-08-30T11:31:35.650Z,14.03
2018-08-30T11:34:03.990Z,13.30
2018-08-30T11:36:32.310Z,14.73
2018-08-30T11:39:00.652Z,15.73
2018-08-30T11:41:29.072Z,13.57
2018-08-30T11:43:57.385Z,13.50
2018-08-30T11:46:25.696Z,12.47
2018-08-30T11:48:54.114Z,13.60
2018-08-30T11:51:22.450Z,15.37
2018-08-30T11:53:50.801Z,15.93
2018-08-30T11:56:19.156Z,14.80
2018-08-30T11:58:47.474Z,15.17
2018-08-30T12:01:15.797Z,15.10
2018-08-30T12:03:45.056Z,12.67
2018-08-30T12:06:13.415Z,11.77
2018-08-30T12:08:41.853Z,13.30
2018-08-30T12:11:10.439Z,13.23
2018-08-30T12:13:38.793Z,12.03
2018-08-30T12:16:07.113Z,9.57
2018-08-30T12:18:35.470Z,12.20
2018-08-30T12:21:03.985Z,9.90
2018-08-30T12:23:32.321Z,11.03
2018-08-30T12:26:00.661Z,11.17
2018-08-30T12:28:29.441Z,10.77
2018-08-30T12:30:57.912Z,11.43
2018-08-30T12:33:26.271Z,10.17
2018-08-30T12:35:54.758Z,11.57
2018-08-30T12:38:23.003Z,10.60
2018-08-30T12:40:51.385Z,10.43
2018-08-30T12:43:19.890Z,10.70
2018-08-30T12:45:48.143Z,10.73
2018-08-30T12:48:16.463Z,9.63
2018-08-30T12:50:44.974Z,10.33
2018-08-30T12:53:13.308Z,10.50
2018-08-30T12:55:41.730Z,9.07
2018-08-30T12:58:10.099Z,9.40
2018-08-30T13:00:38.486Z,6.93
2018-08-30T13:03:06.705Z,8.03
2018-08-30T13:05:35.368Z,8.40
2018-08-30T13:08:03.588Z,8.70
2018-08-30T13:10:32.021Z,8.93
2018-08-30T13:13:00.514Z,10.73
2018-08-30T13:15:28.944Z,9.43
2018-08-30T13:17:57.045Z,10.00
2018-08-30T13:20:25.468Z,11.03
2018-08-30T13:22:53.823Z,9.83
2018-08-30T13:25:22.221Z,9.97
2018-08-30T13:27:50.593Z,9.03
2018-08-30T13:30:19.108Z,9.87
2018-08-30T13:32:47.387Z,8.47
2018-08-30T13:35:15.824Z,8.97
2018-08-30T13:37:44.310Z,8.50
2018-08-30T13:40:12.751Z,8.53
2018-08-30T13:42:40.992Z,7.90
2018-08-30T13:45:10.185Z,7.70
2018-08-30T13:47:38.230Z,8.33
2018-08-30T13:50:06.719Z,7.63
2018-08-30T13:52:35.170Z,6.70
2018-08-30T13:55:03.433Z,6.00
2018-08-30T13:57:31.925Z,6.17
2018-08-30T14:00:00.453Z,6.20
2018-08-30T14:02:28.528Z,5.30
2018-08-30T14:04:57.675Z,5.23
2018-08-30T14:07:26.081Z,5.00
2018-08-30T14:09:54.369Z,5.30
2018-08-30T14:12:22.740Z,5.93
2018-08-30T14:14:51.023Z,5.10
2018-08-30T14:17:19.193Z,4.53
2018-08-30T14:19:47.608Z,7.10
2018-08-30T14:22:15.919Z,5.43
2018-08-30T14:24:44.274Z,5.20
2018-08-30T14:27:12.642Z,5.90
2018-08-30T14:29:40.984Z,6.67
2018-08-30T14:32:09.333Z,6.13
2018-08-30T14:34:37.666Z,5.60
2018-08-30T14:37:05.985Z,5.77
2018-08-30T14:39:34.320Z,5.60
2018-08-30T14:42:02.630Z,5.53
2018-08-30T14:44:30.958Z,4.37
2018-08-30T14:46:59.507Z,4.47
2018-08-30T14:49:27.665Z,5.00
2018-08-30T14:51:55.997Z,5.80
2018-08-30T14:54:24.432Z,5.50
2018-08-30T14:56:52.689Z,5.47
2018-08-30T14:59:21.294Z,4.30
2018-08-30T15:01:49.370Z,4.80
2018-08-30T15:04:17.708Z,5.20
2018-08-30T15:06:46.213Z,5.07
2018-08-30T15:09:15.501Z,4.90
2018-08-30T15:11:43.824Z,4.33
2018-08-30T15:14:12.235Z,3.53
2018-08-30T15:16:40.541Z,3.70
2018-08-30T15:19:08.935Z,6.87
2018-08-30T15:21:37.232Z,5.97
2018-08-30T15:24:05.543Z,5.40
2018-08-30T15:26:33.902Z,5.57
2018-08-30T15:29:02.293Z,3.87
2018-08-30T15:31:30.586Z,4.17
2018-08-30T15:33:59.008Z,3.10
2018-08-30T15:36:27.262Z,5.90
2018-08-30T15:38:55.614Z,4.60
2018-08-30T15:41:23.955Z,4.13
2018-08-30T15:43:52.276Z,4.53
2018-08-30T15:46:20.628Z,5.33
2018-08-30T15:48:49.034Z,3.77
2018-08-30T15:51:17.310Z,5.33
2018-08-30T15:53:45.641Z,4.30
2018-08-30T15:56:13.972Z,3.80
2018-08-30T15:58:42.301Z,3.27
2018-08-30T16:01:10.655Z,3.43
2018-08-30T16:03:38.953Z,3.30
2018-08-30T16:06:07.321Z,3.10
2018-08-30T16:08:35.646Z,3.63
2018-08-30T16:11:03.992Z,4.30
2018-08-30T16:13:32.322Z,4.20
2018-08-30T16:16:01.144Z,3.57
2018-08-30T16:18:29.520Z,4.27
2018-08-30T16:20:58.162Z,3.97
2018-08-30T16:23:30.338Z,3.77
2018-08-30T16:25:58.707Z,2.77
2018-08-30T16:28:28.080Z,1.70
2018-08-30T16:30:56.415Z,2.20
2018-08-30T16:33:24.744Z,1.90
2018-08-30T16:35:53.144Z,2.83
2018-08-30T16:38:21.489Z,3.93
2018-08-30T16:40:49.835Z,4.20
2018-08-30T16:43:18.148Z,3.07
2018-08-30T16:45:46.684Z,3.87
2018-08-30T16:48:15.302Z,4.53
2018-08-30T16:50:43.656Z,3.50
2018-08-30T16:53:12.131Z,3.10
2018-08-30T16:55:40.458Z,4.00
2018-08-30T16:58:08.717Z,3.43
2018-08-30T17:00:37.069Z,3.63
2018-08-30T17:03:05.798Z,3.40
2018-08-30T17:05:34.192Z,3.13
2018-08-30T17:08:02.534Z,3.00
2018-08-30T17:10:30.837Z,3.07
2018-08-30T17:12:59.346Z,2.80
2018-08-30T17:15:27.678Z,2.93
2018-08-30T17:17:56.273Z,2.50
2018-08-30T17:20:36.107Z,3.03
2018-08-30T17:23:04.444Z,3.10
2018-08-30T17:25:32.753Z,2.37
2018-08-30T17:28:01.081Z,2.73
2018-08-30T17:30:29.401Z,2.90
2018-08-30T17:32:57.841Z,2.67
2018-08-30T17:35:26.634Z,2.40
2018-08-30T17:37:54.967Z,2.50
2018-08-30T17:40:23.440Z,2.70
2018-08-30T17:42:52.201Z,2.77
2018-08-30T17:45:20.991Z,2.50
2018-08-30T17:47:49.242Z,2.70
2018-08-30T17:50:18.197Z,3.23
2018-08-30T17:52:46.549Z,3.30
2018-08-30T17:55:15.012Z,2.47
2018-08-30T17:57:43.260Z,2.60
2018-08-30T18:00:12.853Z,2.07
2018-08-30T18:02:41.660Z,2.30
2018-08-30T18:05:10.058Z,2.40
2018-08-30T18:07:38.454Z,2.13
2018-08-30T18:10:08.096Z,1.93
2018-08-30T18:12:36.617Z,1.70
2018-08-30T18:15:05.075Z,2.57
2018-08-30T18:17:33.408Z,2.90
2018-08-30T18:20:01.717Z,2.60
2018-08-30T18:22:30.040Z,2.93
2018-08-30T18:24:58.354Z,3.33
2018-08-30T18:27:26.690Z,2.90
2018-08-30T18:29:55.116Z,2.90
2018-08-30T18:32:23.461Z,3.13
2018-08-30T18:34:51.783Z,3.10
2018-08-30T18:37:20.117Z,3.00
2018-08-30T18:39:48.432Z,2.70
2018-08-30T18:42:16.818Z,2.90
2018-08-30T18:44:45.101Z,2.70
2018-08-30T18:47:13.470Z,2.03
2018-08-30T18:49:42.365Z,2.63
2018-08-30T18:52:10.702Z,2.80
2018-08-30T18:54:39.016Z,2.60
2018-08-30T18:57:07.459Z,2.80
2018-08-30T18:59:36.426Z,2.50
2018-08-30T19:02:04.792Z,2.80
2018-08-30T19:04:33.301Z,2.70
2018-08-30T19:07:01.713Z,2.57
2018-08-30T19:09:30.038Z,2.63
2018-08-30T19:11:58.368Z,1.90
2018-08-30T19:14:26.681Z,1.90
2018-08-30T19:17:00.485Z,1.70
2018-08-30T19:19:28.801Z,2.13
2018-08-30T19:21:57.123Z,1.87
2018-08-30T19:24:30.685Z,1.90
2018-08-30T19:26:59.017Z,2.10
2018-08-30T19:29:27.327Z,2.77
2018-08-30T19:31:55.659Z,3.27
2018-08-30T19:34:23.994Z,2.43
2018-08-30T19:36:52.338Z,3.13
2018-08-30T19:39:20.703Z,2.50
2018-08-30T19:41:49.043Z,2.53
2018-08-30T19:44:17.378Z,2.30
2018-08-30T19:46:45.688Z,2.70
2018-08-30T19:49:14.035Z,2.10
2018-08-30T19:51:42.357Z,2.10
2018-08-30T19:54:10.698Z,1.93
2018-08-30T19:56:39.038Z,2.40
2018-08-30T19:59:07.424Z,2.17
2018-08-30T20:01:35.741Z,1.80
2018-08-30T20:04:04.081Z,2.43
2018-08-30T20:06:32.409Z,2.47
2018-08-30T20:09:00.737Z,2.50
2018-08-30T20:11:29.054Z,1.90
2018-08-30T20:13:57.397Z,1.60
2018-08-30T20:16:25.717Z,1.90
2018-08-30T20:18:54.057Z,2.10
2018-08-30T20:21:22.386Z,1.67
2018-08-30T20:23:50.732Z,2.30
2018-08-30T20:26:19.106Z,2.20
2018-08-30T20:28:47.433Z,1.87
2018-08-30T20:31:15.753Z,2.43
2018-08-30T20:33:44.096Z,1.93
2018-08-30T20:36:12.465Z,2.50
2018-08-30T20:38:40.797Z,1.90
2018-08-30T20:41:09.135Z,2.23
2018-08-30T20:43:37.473Z,1.90
2018-08-30T20:46:05.914Z,1.87
2018-08-30T20:48:34.240Z,1.80
2018-08-30T20:51:02.563Z,1.63
2018-08-30T20:53:30.922Z,1.60
2018-08-30T20:55:59.232Z,1.70
2018-08-30T20:58:27.578Z,2.20
2018-08-30T21:00:55.891Z,2.53
2018-08-30T21:03:24.226Z,1.40
2018-08-30T21:05:52.554Z,1.70
2018-08-30T21:08:20.889Z,1.70
2018-08-30T21:10:49.199Z,1.77
2018-08-30T21:13:17.548Z,1.90
2018-08-30T21:15:45.872Z,1.50
2018-08-30T21:18:14.221Z,1.43
2018-08-30T21:20:42.555Z,1.70
2018-08-30T21:23:10.915Z,1.40
2018-08-30T21:25:39.216Z,2.03
2018-08-30T21:28:07.546Z,1.40
2018-08-30T21:30:35.973Z,1.70
2018-08-30T21:33:04.322Z,2.00
2018-08-30T21:35:32.636Z,1.50
2018-08-30T21:38:00.977Z,1.43
2018-08-30T21:40:29.302Z,2.07
2018-08-30T21:42:57.652Z,1.40
2018-08-30T21:45:25.958Z,1.20
2018-08-30T21:47:54.333Z,1.43
2018-08-30T21:50:22.632Z,1.97
2018-08-30T21:52:50.949Z,1.50
2018-08-30T21:55:19.288Z,1.40
2018-08-30T21:57:47.602Z,2.00
2018-08-30T22:00:15.969Z,1.40
2018-08-30T22:02:44.327Z,1.37
2018-08-30T22:05:12.704Z,1.13
2018-08-30T22:07:41.021Z,0.93
2018-08-30T22:10:09.353Z,1.53
2018-08-30T22:12:37.668Z,1.50
2018-08-30T22:15:06.252Z,1.43
2018-08-30T22:17:34.575Z,1.50
2018-08-30T22:20:02.985Z,1.30
2018-08-30T22:22:31.308Z,1.30
2018-08-30T22:24:59.641Z,1.30
2018-08-30T22:27:27.964Z,1.60
2018-08-30T22:29:56.318Z,1.80
2018-08-30T22:32:24.633Z,1.40
2018-08-30T22:34:53.025Z,1.30
2018-08-30T22:37:21.355Z,1.73
2018-08-30T22:39:49.719Z,1.40
2018-08-30T22:42:18.059Z,1.43
2018-08-30T22:44:46.445Z,1.90
2018-08-30T22:47:14.767Z,1.70
2018-08-30T22:49:43.100Z,1.77
2018-08-30T22:52:11.480Z,1.60
2018-08-30T22:54:39.810Z,1.70
2018-08-30T22:57:08.130Z,1.70
2018-08-30T22:59:36.483Z,1.30
2018-08-30T23:02:04.928Z,1.37
2018-08-30T23:04:33.410Z,1.37
2018-08-30T23:07:01.743Z,1.67
2018-08-30T23:09:30.095Z,1.50
2018-08-30T23:11:58.423Z,1.70
2018-08-30T23:14:26.769Z,1.50
2018-08-30T23:16:55.093Z,1.30
2018-08-30T23:19:23.424Z,2.10
2018-08-30T23:21:51.746Z,1.87
2018-08-30T23:24:20.102Z,1.37
2018-08-30T23:26:48.427Z,1.70
2018-08-30T23:29:16.767Z,1.70
2018-08-30T23:31:45.085Z,1.53
2018-08-30T23:34:13.446Z,1.80
2018-08-30T23:36:41.804Z,1.37
2018-08-30T23:39:11.417Z,1.13
2018-08-30T23:41:39.762Z,1.60
2018-08-30T23:44:08.735Z,1.20
2018-08-30T23:46:37.225Z,1.03
2018-08-30T23:49:05.738Z,1.60
2018-08-30T23:51:34.042Z,1.87
2018-08-30T23:54:02.369Z,1.83
2018-08-30T23:56:30.680Z,1.40
2018-08-30T23:59:10.238Z,1.70
